createdAt,value
2018-03-15T00:01:08.944Z,84.60
2018-03-15T00:03:37.599Z,84.10
2018-03-15T00:06:06.045Z,84.60
2018-03-15T00:08:35.201Z,84.20
2018-03-15T00:11:08.979Z,84.10
2018-03-15T00:13:42.815Z,84.30
2018-03-15T00:16:11.218Z,84.30
2018-03-15T00:18:39.785Z,84.20
2018-03-15T00:21:08.174Z,84.20
2018-03-15T00:23:36.558Z,84.20
2018-03-15T00:26:04.949Z,83.50
2018-03-15T00:28:33.472Z,84.10
2018-03-15T00:31:02.984Z,83.60
2018-03-15T00:33:32.125Z,84.00
2018-03-15T00:36:00.501Z,84.00
2018-03-15T00:38:35.078Z,83.70
2018-03-15T00:41:08.751Z,83.70
2018-03-15T00:43:39.309Z,84.20
2018-03-15T00:46:08.487Z,84.40
2018-03-15T00:48:36.964Z,84.40
2018-03-15T00:51:05.338Z,84.50
2018-03-15T00:53:33.747Z,84.30
2018-03-15T00:56:02.137Z,83.30
2018-03-15T00:58:31.538Z,83.60
2018-03-15T01:01:00.723Z,83.10
2018-03-15T01:03:29.110Z,83.10
2018-03-15T01:06:03.035Z,82.60
2018-03-15T01:08:31.813Z,82.60
2018-03-15T01:11:00.292Z,82.00
2018-03-15T01:13:28.699Z,82.60
2018-03-15T01:15:57.118Z,82.60
2018-03-15T01:18:26.324Z,82.40
2018-03-15T01:20:54.745Z,82.30
2018-03-15T01:23:23.209Z,82.10
2018-03-15T01:25:52.370Z,82.10
2018-03-15T01:28:20.762Z,82.10
2018-03-15T01:30:50.277Z,81.80
2018-03-15T01:33:19.448Z,81.80
2018-03-15T01:35:47.837Z,81.80
2018-03-15T01:38:16.242Z,81.80
2018-03-15T01:40:45.411Z,80.90
2018-03-15T01:43:14.718Z,80.70
2018-03-15T01:45:43.133Z,80.90
2018-03-15T01:48:11.528Z,80.90
2018-03-15T01:50:39.901Z,80.80
2018-03-15T01:53:12.533Z,81.10
2018-03-15T01:55:40.852Z,81.10
2018-03-15T01:58:09.304Z,80.70
2018-03-15T02:00:37.685Z,80.80
2018-03-15T02:03:06.088Z,81.20
2018-03-15T02:05:34.821Z,80.60
2018-03-15T02:08:03.376Z,79.90
2018-03-15T02:10:31.750Z,79.40
2018-03-15T02:13:01.260Z,79.50
2018-03-15T02:15:31.888Z,79.40
2018-03-15T02:18:00.652Z,78.90
2018-03-15T02:20:29.085Z,79.00
2018-03-15T02:22:57.477Z,78.30
2018-03-15T02:25:26.644Z,76.80
2018-03-15T02:27:55.030Z,76.80
2018-03-15T02:30:23.421Z,76.80
2018-03-15T02:32:51.919Z,76.80
2018-03-15T02:35:21.103Z,76.80
2018-03-15T02:37:49.484Z,76.80
2018-03-15T02:40:17.921Z,76.90
2018-03-15T02:42:46.332Z,76.90
2018-03-15T02:45:15.682Z,76.90
2018-03-15T02:47:44.141Z,76.90
2018-03-15T02:50:12.506Z,76.90
2018-03-15T02:52:40.895Z,76.60
2018-03-15T02:55:09.356Z,76.30
2018-03-15T02:57:38.601Z,76.10
2018-03-15T03:00:09.196Z,76.20
2018-03-15T03:02:37.639Z,76.20
2018-03-15T03:05:06.052Z,76.20
2018-03-15T03:07:36.185Z,76.20
2018-03-15T03:10:04.634Z,76.20
2018-03-15T03:12:33.011Z,75.10
2018-03-15T03:15:01.632Z,75.20
2018-03-15T03:17:30.189Z,75.90
2018-03-15T03:19:58.586Z,75.40
2018-03-15T03:22:32.377Z,75.20
2018-03-15T03:25:07.112Z,74.30
2018-03-15T03:27:36.164Z,74.10
2018-03-15T03:30:04.741Z,75.00
2018-03-15T03:32:33.137Z,75.90
2018-03-15T03:35:01.557Z,75.10
2018-03-15T03:37:30.755Z,74.50
2018-03-15T03:39:59.162Z,74.60
2018-03-15T03:42:27.599Z,74.50
2018-03-15T03:44:56.077Z,74.30
2018-03-15T03:47:24.497Z,73.40
2018-03-15T03:49:58.321Z,73.00
2018-03-15T03:52:32.324Z,73.10
2018-03-15T03:55:00.892Z,73.70
2018-03-15T03:57:29.294Z,73.60
2018-03-15T03:59:57.713Z,74.20
2018-03-15T04:02:26.149Z,73.90
2018-03-15T04:04:54.581Z,74.10
2018-03-15T04:07:23.001Z,73.90
2018-03-15T04:09:51.400Z,73.50
2018-03-15T04:12:20.740Z,74.10
2018-03-15T04:14:51.292Z,73.90
2018-03-15T04:17:19.729Z,73.80
2018-03-15T04:19:48.632Z,74.00
2018-03-15T04:22:17.032Z,73.70
2018-03-15T04:24:45.414Z,74.00
2018-03-15T04:27:13.857Z,73.90
2018-03-15T04:29:42.300Z,74.50
2018-03-15T04:32:10.866Z,74.30
2018-03-15T04:34:40.070Z,74.10
2018-03-15T04:37:13.997Z,74.00
2018-03-15T04:39:42.376Z,73.70
2018-03-15T04:42:10.731Z,74.00
2018-03-15T04:44:39.140Z,74.10
2018-03-15T04:47:07.565Z,74.00
2018-03-15T04:49:36.029Z,73.60
2018-03-15T04:52:05.232Z,74.60
2018-03-15T04:54:34.456Z,75.20
2018-03-15T04:57:02.846Z,75.10
2018-03-15T04:59:35.975Z,74.80
2018-03-15T05:02:04.382Z,74.30
2018-03-15T05:04:32.787Z,74.10
2018-03-15T05:07:01.970Z,74.30
2018-03-15T05:09:30.396Z,74.20
2018-03-15T05:11:59.557Z,74.60
2018-03-15T05:14:27.925Z,74.00
2018-03-15T05:16:56.518Z,74.30
2018-03-15T05:19:25.103Z,74.20
2018-03-15T05:21:56.892Z,74.50
2018-03-15T05:24:26.065Z,74.00
2018-03-15T05:26:54.537Z,74.00
2018-03-15T05:29:22.953Z,73.80
2018-03-15T05:31:51.348Z,73.90
2018-03-15T05:34:20.529Z,74.80
2018-03-15T05:36:48.916Z,74.70
2018-03-15T05:39:17.373Z,74.10
2018-03-15T05:41:45.781Z,74.10
2018-03-15T05:44:19.597Z,74.80
2018-03-15T05:46:48.003Z,74.50
2018-03-15T05:49:17.144Z,74.70
2018-03-15T05:51:46.461Z,74.30
2018-03-15T05:54:14.910Z,74.30
2018-03-15T05:56:43.301Z,74.20
2018-03-15T05:59:12.674Z,75.40
2018-03-15T06:01:41.263Z,74.50
2018-03-15T06:04:09.652Z,74.10
2018-03-15T06:06:38.525Z,74.20
2018-03-15T06:09:06.924Z,73.60
2018-03-15T06:11:35.790Z,73.70
2018-03-15T06:14:04.201Z,73.20
2018-03-15T06:16:34.607Z,73.80
2018-03-15T06:19:03.087Z,73.10
2018-03-15T06:21:31.506Z,74.00
2018-03-15T06:23:59.932Z,74.50
2018-03-15T06:26:28.325Z,74.10
2018-03-15T06:29:02.111Z,73.20
2018-03-15T06:31:34.135Z,72.70
2018-03-15T06:34:02.570Z,72.50
2018-03-15T06:36:31.003Z,72.60
2018-03-15T06:39:01.125Z,71.20
2018-03-15T06:41:29.553Z,71.30
2018-03-15T06:43:58.728Z,73.10
2018-03-15T06:46:27.167Z,73.00
2018-03-15T06:48:55.531Z,72.60
2018-03-15T06:51:23.916Z,72.60
2018-03-15T06:53:53.508Z,72.50
2018-03-15T06:56:22.658Z,73.20
2018-03-15T06:58:51.116Z,73.00
2018-03-15T07:01:19.501Z,73.30
2018-03-15T07:03:47.952Z,73.10
2018-03-15T07:06:17.129Z,74.10
2018-03-15T07:08:47.251Z,74.70
2018-03-15T07:11:15.677Z,74.70
2018-03-15T07:13:44.091Z,74.60
2018-03-15T07:16:17.948Z,74.50
2018-03-15T07:18:48.585Z,72.80
2018-03-15T07:21:16.985Z,71.70
2018-03-15T07:23:45.897Z,70.80
2018-03-15T07:26:14.276Z,71.10
2018-03-15T07:28:42.821Z,71.60
2018-03-15T07:31:11.284Z,68.70
2018-03-15T07:33:40.429Z,68.90
2018-03-15T07:36:08.838Z,68.10
2018-03-15T07:38:37.985Z,69.60
2018-03-15T07:41:06.525Z,69.50
2018-03-15T07:43:35.674Z,70.00
2018-03-15T07:46:04.139Z,70.00
2018-03-15T07:48:32.601Z,67.00
2018-03-15T07:51:00.995Z,68.00
2018-03-15T07:53:29.388Z,67.60
2018-03-15T07:55:57.828Z,67.10
2018-03-15T07:58:26.449Z,67.50
2018-03-15T08:00:55.586Z,66.40
2018-03-15T08:03:28.442Z,66.40
2018-03-15T08:05:56.880Z,66.50
2018-03-15T08:08:25.321Z,66.00
2018-03-15T08:10:53.711Z,66.80
2018-03-15T08:13:22.099Z,66.10
2018-03-15T08:15:51.422Z,66.00
2018-03-15T08:18:19.861Z,66.00
2018-03-15T08:20:49.198Z,66.30
2018-03-15T08:23:17.588Z,66.30
2018-03-15T08:25:47.645Z,66.90
2018-03-15T08:28:16.048Z,67.30
2018-03-15T08:30:44.539Z,66.80
2018-03-15T08:33:12.960Z,67.30
2018-03-15T08:35:41.367Z,67.30
2018-03-15T08:38:09.816Z,67.50
2018-03-15T08:40:38.360Z,67.70
2018-03-15T08:43:06.815Z,67.60
2018-03-15T08:45:35.221Z,67.70
2018-03-15T08:48:07.810Z,66.80
2018-03-15T08:50:36.401Z,67.80
2018-03-15T08:53:04.970Z,67.40
2018-03-15T08:55:33.392Z,67.00
2018-03-15T08:58:02.729Z,69.60
2018-03-15T09:00:31.313Z,70.30
2018-03-15T09:02:59.802Z,70.00
2018-03-15T09:05:28.178Z,69.60
2018-03-15T09:07:56.592Z,70.20
2018-03-15T09:10:30.477Z,70.50
2018-03-15T09:12:58.943Z,70.50
2018-03-15T09:15:27.330Z,70.70
2018-03-15T09:17:55.733Z,69.60
2018-03-15T09:20:24.348Z,69.00
2018-03-15T09:22:52.743Z,69.10
2018-03-15T09:25:21.114Z,67.90
2018-03-15T09:27:49.681Z,66.90
2018-03-15T09:30:18.965Z,68.00
2018-03-15T09:32:49.449Z,67.90
2018-03-15T09:35:18.633Z,68.60
2018-03-15T09:37:47.151Z,68.60
2018-03-15T09:40:16.616Z,68.10
2018-03-15T09:42:45.216Z,68.10
2018-03-15T09:45:13.627Z,67.40
2018-03-15T09:47:42.087Z,67.60
2018-03-15T09:50:10.645Z,67.70
2018-03-15T09:52:39.880Z,67.90
2018-03-15T09:55:08.282Z,67.90
2018-03-15T09:57:36.855Z,67.10
2018-03-15T10:00:05.267Z,67.10
2018-03-15T10:02:33.770Z,68.70
2018-03-15T10:05:02.194Z,67.80
2018-03-15T10:07:30.622Z,67.90
2018-03-15T10:09:59.823Z,67.20
2018-03-15T10:12:29.893Z,67.90
2018-03-15T10:14:58.353Z,67.80
2018-03-15T10:17:32.128Z,67.80
2018-03-15T10:20:01.345Z,68.00
2018-03-15T10:22:30.500Z,67.10
2018-03-15T10:24:58.862Z,67.20
2018-03-15T10:27:27.310Z,66.70
2018-03-15T10:29:56.513Z,66.40
2018-03-15T10:32:24.866Z,66.40
2018-03-15T10:34:59.088Z,65.50
2018-03-15T10:37:28.508Z,66.60
2018-03-15T10:40:03.119Z,66.40
2018-03-15T10:42:31.576Z,66.20
2018-03-15T10:45:01.729Z,65.70
2018-03-15T10:47:30.300Z,64.00
2018-03-15T10:49:59.493Z,62.50
2018-03-15T10:52:27.920Z,62.40
2018-03-15T10:54:56.298Z,63.40
2018-03-15T10:57:24.865Z,64.10
2018-03-15T10:59:53.283Z,65.70
2018-03-15T11:02:21.714Z,65.80
2018-03-15T11:05:01.442Z,66.80
2018-03-15T11:07:29.889Z,65.30
2018-03-15T11:09:59.063Z,63.30
2018-03-15T11:12:27.772Z,63.20
2018-03-15T11:14:56.155Z,63.80
2018-03-15T11:17:24.560Z,63.60
2018-03-15T11:19:53.000Z,64.40
2018-03-15T11:22:22.222Z,64.50
2018-03-15T11:24:51.423Z,64.10
2018-03-15T11:27:24.328Z,64.10
2018-03-15T11:32:35.588Z,65.70
2018-03-15T11:35:04.002Z,64.60
2018-03-15T11:37:33.157Z,66.10
2018-03-15T11:40:01.576Z,66.00
2018-03-15T11:42:30.159Z,65.30
2018-03-15T11:44:58.564Z,65.40
2018-03-15T11:47:26.955Z,63.80
2018-03-15T11:49:55.399Z,64.00
2018-03-15T11:52:23.976Z,64.00
2018-03-15T11:54:53.238Z,64.00
2018-03-15T11:57:27.816Z,63.60
2018-03-15T11:59:56.212Z,63.60
2018-03-15T12:02:24.649Z,62.20
2018-03-15T12:04:53.803Z,61.70
2018-03-15T12:07:22.669Z,61.70
2018-03-15T12:09:51.084Z,62.50
2018-03-15T12:12:20.259Z,61.90
2018-03-15T12:14:49.586Z,63.30
2018-03-15T12:17:18.185Z,63.30
2018-03-15T12:19:46.583Z,59.90
2018-03-15T12:22:15.757Z,61.60
2018-03-15T12:24:44.896Z,62.50
2018-03-15T12:27:13.300Z,62.60
2018-03-15T12:29:41.678Z,62.60
2018-03-15T12:32:10.220Z,61.50
2018-03-15T12:34:38.610Z,61.30
2018-03-15T12:37:07.049Z,61.00
2018-03-15T12:39:35.591Z,62.20
2018-03-15T12:42:09.353Z,62.10
2018-03-15T12:44:37.769Z,62.90
2018-03-15T12:47:06.200Z,63.50
2018-03-15T12:49:34.626Z,62.40
2018-03-15T12:52:03.923Z,60.90
2018-03-15T12:54:32.301Z,60.90
2018-03-15T12:57:00.712Z,61.40
2018-03-15T12:59:29.312Z,62.40
2018-03-15T13:01:58.579Z,61.60
2018-03-15T13:04:32.285Z,61.60
2018-03-15T13:07:00.641Z,60.70
2018-03-15T13:09:29.081Z,61.60
2018-03-15T13:11:57.455Z,61.00
2018-03-15T13:14:27.565Z,59.80
2018-03-15T13:16:55.998Z,59.80
2018-03-15T13:19:25.243Z,60.70
2018-03-15T13:21:53.607Z,61.40
2018-03-15T13:24:22.044Z,58.90
2018-03-15T13:26:51.994Z,58.10
2018-03-15T13:29:20.540Z,57.80
2018-03-15T13:31:49.759Z,57.70
2018-03-15T13:34:18.171Z,57.60
2018-03-15T13:36:46.735Z,59.20
2018-03-15T13:39:15.174Z,57.30
2018-03-15T13:41:43.589Z,57.10
2018-03-15T13:44:11.973Z,57.10
2018-03-15T13:46:40.372Z,56.50
2018-03-15T13:49:10.353Z,56.40
2018-03-15T13:51:38.923Z,56.40
2018-03-15T13:54:09.017Z,56.80
2018-03-15T13:56:37.392Z,57.10
2018-03-15T13:59:06.561Z,56.00
2018-03-15T14:01:34.985Z,56.00
2018-03-15T14:04:03.337Z,56.40
2018-03-15T14:06:31.771Z,55.80
2018-03-15T14:09:00.913Z,55.20
2018-03-15T14:11:29.630Z,55.20
2018-03-15T14:13:58.033Z,55.60
2018-03-15T14:16:26.419Z,56.40
2018-03-15T14:18:54.780Z,55.20
2018-03-15T14:21:23.947Z,56.40
2018-03-15T14:23:52.345Z,57.00
2018-03-15T14:26:21.377Z,56.50
2018-03-15T14:28:49.821Z,56.10
2018-03-15T14:31:18.380Z,56.30
2018-03-15T14:33:49.096Z,57.10
2018-03-15T14:36:17.595Z,57.10
2018-03-15T14:38:46.750Z,57.50
2018-03-15T14:41:15.166Z,57.50
2018-03-15T14:43:43.597Z,57.40
2018-03-15T14:46:12.749Z,57.60
2018-03-15T14:48:41.305Z,57.50
2018-03-15T14:51:09.873Z,57.60
2018-03-15T14:53:38.249Z,57.30
2018-03-15T14:56:07.627Z,59.10
2018-03-15T14:58:36.029Z,59.00
2018-03-15T15:01:04.502Z,58.30
2018-03-15T15:03:32.909Z,58.10
2018-03-15T15:06:02.224Z,57.00
2018-03-15T15:08:30.711Z,57.00
2018-03-15T15:10:59.110Z,58.10
2018-03-15T15:13:27.564Z,57.10
2018-03-15T15:15:55.999Z,57.30
2018-03-15T15:18:24.483Z,57.20
2018-03-15T15:20:52.941Z,57.30
2018-03-15T15:23:21.361Z,57.70
2018-03-15T15:25:49.793Z,58.20
2018-03-15T15:28:18.403Z,58.60
2018-03-15T15:30:46.781Z,58.40
2018-03-15T15:33:15.338Z,58.30
2018-03-15T15:35:43.841Z,57.90
2018-03-15T15:38:13.199Z,57.90
2018-03-15T15:40:41.787Z,57.90
2018-03-15T15:43:11.069Z,58.10
2018-03-15T15:45:39.485Z,58.00
2018-03-15T15:48:08.069Z,57.40
2018-03-15T15:50:36.498Z,57.60
2018-03-15T15:53:05.694Z,58.40
2018-03-15T15:55:34.164Z,58.30
2018-03-15T15:58:02.559Z,58.60
2018-03-15T16:00:31.750Z,59.30
2018-03-15T16:03:00.836Z,59.30
2018-03-15T16:05:30.056Z,59.70
2018-03-15T16:07:58.503Z,59.30
2018-03-15T16:10:27.680Z,59.80
2018-03-15T16:12:56.189Z,59.80
2018-03-15T16:15:26.269Z,60.80
2018-03-15T16:17:54.691Z,60.70
2018-03-15T16:20:24.113Z,61.10
2018-03-15T16:22:54.298Z,61.00
2018-03-15T16:25:27.965Z,61.00
2018-03-15T16:28:02.320Z,61.00
2018-03-15T16:30:30.736Z,61.40
2018-03-15T16:32:59.133Z,61.90
2018-03-15T16:35:27.555Z,62.40
2018-03-15T16:37:55.959Z,61.90
2018-03-15T16:40:25.168Z,61.90
2018-03-15T16:42:53.689Z,61.90
2018-03-15T16:45:22.059Z,61.30
2018-03-15T16:47:58.332Z,62.00
2018-03-15T16:50:27.530Z,61.50
2018-03-15T16:52:55.955Z,61.40
2018-03-15T16:55:24.683Z,60.80
2018-03-15T16:57:53.094Z,60.60
2018-03-15T17:00:21.568Z,61.70
2018-03-15T17:02:51.255Z,61.90
2018-03-15T17:05:20.709Z,62.30
2018-03-15T17:07:51.432Z,61.70
2018-03-15T17:10:20.844Z,61.20
2018-03-15T17:12:49.419Z,61.20
2018-03-15T17:15:17.832Z,60.70
2018-03-15T17:17:47.073Z,59.70
2018-03-15T17:20:16.629Z,59.60
2018-03-15T17:22:45.196Z,59.30
2018-03-15T17:25:13.672Z,59.30
2018-03-15T17:27:42.052Z,60.10
2018-03-15T17:30:10.535Z,60.20
2018-03-15T17:32:39.671Z,60.10
2018-03-15T17:35:08.036Z,60.50
2018-03-15T17:37:37.185Z,61.70
2018-03-15T17:40:05.601Z,61.60
2018-03-15T17:42:34.015Z,61.70
2018-03-15T17:45:02.416Z,62.50
2018-03-15T17:47:30.833Z,62.90
2018-03-15T17:49:59.251Z,63.10
2018-03-15T17:52:28.556Z,63.40
2018-03-15T17:54:57.020Z,63.40
2018-03-15T17:57:28.715Z,63.10
2018-03-15T17:59:57.206Z,63.10
2018-03-15T18:02:27.453Z,62.80
2018-03-15T18:04:55.863Z,62.70
2018-03-15T18:07:25.995Z,63.30
2018-03-15T18:09:54.397Z,63.30
2018-03-15T18:12:22.845Z,63.50
2018-03-15T18:14:51.977Z,63.20
2018-03-15T18:17:20.378Z,63.20
2018-03-15T18:19:50.303Z,63.00
2018-03-15T18:22:18.886Z,62.90
2018-03-15T18:24:47.266Z,63.10
2018-03-15T18:27:15.637Z,63.40
2018-03-15T18:29:44.973Z,64.10
2018-03-15T18:32:13.577Z,64.10
2018-03-15T18:34:43.458Z,64.00
2018-03-15T18:37:11.894Z,63.90
2018-03-15T18:39:41.149Z,64.30
2018-03-15T18:42:14.981Z,64.80
2018-03-15T18:44:43.369Z,64.70
2018-03-15T18:47:12.566Z,64.80
2018-03-15T18:49:40.948Z,64.80
2018-03-15T18:52:09.329Z,64.80
2018-03-15T18:54:37.766Z,64.70
2018-03-15T18:57:06.150Z,64.60
2018-03-15T18:59:35.375Z,65.50
2018-03-15T19:02:03.787Z,65.50
2018-03-15T19:04:36.878Z,65.70
2018-03-15T19:07:05.259Z,65.50
2018-03-15T19:09:33.634Z,65.60
2018-03-15T19:12:02.048Z,65.80
2018-03-15T19:14:30.450Z,65.70
2018-03-15T19:16:59.625Z,64.70
2018-03-15T19:19:50.125Z,64.70
2018-03-15T19:31:58.693Z,65.50
2018-03-15T19:34:27.061Z,67.80
2018-03-15T19:36:55.468Z,67.70
2018-03-15T19:39:23.915Z,67.90
2018-03-15T19:41:53.053Z,68.10
2018-03-15T19:44:22.213Z,68.30
2018-03-15T19:46:50.824Z,68.30
2018-03-15T19:49:19.194Z,68.60
2018-03-15T19:51:47.640Z,68.60
2018-03-15T19:54:16.093Z,68.60
2018-03-15T19:56:44.461Z,69.00
2018-03-15T19:59:12.872Z,69.60
2018-03-15T20:01:41.262Z,70.30
2018-03-15T20:04:10.091Z,70.80
2018-03-15T20:06:38.066Z,71.40
2018-03-15T20:09:06.119Z,71.80
2018-03-15T20:11:33.997Z,72.20
2018-03-15T20:14:04.636Z,74.40
2018-03-15T20:16:37.808Z,75.00
2018-03-15T20:19:12.032Z,76.30
2018-03-15T20:21:39.972Z,76.20
2018-03-15T20:24:13.520Z,77.00
2018-03-15T20:26:41.551Z,77.60
2018-03-15T20:29:10.137Z,78.60
2018-03-15T20:31:38.105Z,78.60
2018-03-15T20:34:12.771Z,79.20
2018-03-15T20:37:05.407Z,79.50
2018-03-15T20:39:39.798Z,80.40
2018-03-15T20:42:08.407Z,80.40
2018-03-15T20:44:36.987Z,80.80
2018-03-15T20:47:10.430Z,80.70
2018-03-15T20:49:39.065Z,81.60
2018-03-15T20:52:07.647Z,81.90
2018-03-15T20:54:36.271Z,81.90
2018-03-15T20:57:04.116Z,81.80
2018-03-15T20:59:31.956Z,82.10
2018-03-15T21:01:59.826Z,82.10
2018-03-15T21:04:27.645Z,82.20
2018-03-15T21:06:55.468Z,84.40
2018-03-15T21:09:23.308Z,80.50
2018-03-15T21:11:51.112Z,75.60
2018-03-15T21:14:19.016Z,72.90
2018-03-15T21:16:46.853Z,72.40
2018-03-15T21:19:14.753Z,73.30
2018-03-15T21:21:42.772Z,74.10
2018-03-15T21:24:10.571Z,75.30
2018-03-15T21:26:38.556Z,76.30
2018-03-15T21:29:07.190Z,77.30
2018-03-15T21:31:35.057Z,77.30
2018-03-15T21:34:02.904Z,77.40
2018-03-15T21:36:30.703Z,78.30
2018-03-15T21:38:58.528Z,78.90
2018-03-15T21:41:26.576Z,79.00
2018-03-15T21:43:55.204Z,79.00
2018-03-15T21:46:23.185Z,79.00
2018-03-15T21:48:51.053Z,79.10
2018-03-15T21:51:18.839Z,79.00
2018-03-15T21:53:46.771Z,78.90
2018-03-15T21:56:14.756Z,79.10
2018-03-15T21:58:42.743Z,79.20
2018-03-15T22:01:10.737Z,79.20
2018-03-15T22:03:38.588Z,79.00
2018-03-15T22:06:07.378Z,79.30
2018-03-15T22:08:35.400Z,79.40
2018-03-15T22:11:03.202Z,79.30
2018-03-15T22:13:34.003Z,79.30
2018-03-15T22:16:01.872Z,79.30
2018-03-15T22:18:29.690Z,79.50
2018-03-15T22:20:57.570Z,79.90
2018-03-15T22:23:25.461Z,79.90
2018-03-15T22:25:53.270Z,79.90
2018-03-15T22:28:21.931Z,79.90
2018-03-15T22:30:49.751Z,79.90
2018-03-15T22:33:18.381Z,79.80
2018-03-15T22:35:46.196Z,79.80
2018-03-15T22:38:14.924Z,80.80
2018-03-15T22:40:42.720Z,80.80
2018-03-15T22:43:11.308Z,81.00
2018-03-15T22:45:39.874Z,81.00
2018-03-15T22:48:07.727Z,81.00
2018-03-15T22:50:35.517Z,81.00
2018-03-15T22:53:03.495Z,80.30
2018-03-15T22:55:31.321Z,80.70
2018-03-15T22:57:59.148Z,80.80
2018-03-15T23:00:27.730Z,80.70
2018-03-15T23:02:55.528Z,80.50
2018-03-15T23:05:24.119Z,80.40
2018-03-15T23:07:51.980Z,80.40
2018-03-15T23:10:20.570Z,81.00
2018-03-15T23:12:48.368Z,81.00
2018-03-15T23:15:16.197Z,81.00
2018-03-15T23:17:44.155Z,81.20
2018-03-15T23:20:12.007Z,80.70
2018-03-15T23:22:39.810Z,80.90
2018-03-15T23:27:49.782Z,80.30
2018-03-15T23:30:18.347Z,80.20
2018-03-15T23:32:46.145Z,80.20
2018-03-15T23:35:14.731Z,80.00
2018-03-15T23:37:42.578Z,79.90
2018-03-15T23:40:10.371Z,79.80
2018-03-15T23:42:38.194Z,79.80
2018-03-15T23:45:06.014Z,79.90
2018-03-15T23:47:33.840Z,79.90
2018-03-15T23:50:01.767Z,79.90
2018-03-15T23:52:29.616Z,79.90
2018-03-15T23:54:57.444Z,79.80
2018-03-15T23:57:25.235Z,79.80
2018-03-15T23:59:53.120Z,80.00
